createdAt,value
2023-02-22T00:02:45.170Z,31.08
2023-02-22T00:05:33.601Z,39.10
2023-02-22T00:08:26.038Z,38.40
2023-02-22T00:11:15.025Z,37.38
2023-02-22T00:14:03.647Z,41.90
2023-02-22T00:16:52.102Z,39.00
2023-02-22T00:19:40.538Z,35.27
2023-02-22T00:22:29.491Z,35.80
2023-02-22T00:25:20.953Z,35.58
2023-02-22T00:28:09.476Z,39.08
2023-02-22T00:30:57.921Z,38.47
2023-02-22T00:33:46.398Z,34.22
2023-02-22T00:36:34.839Z,33.50
2023-02-22T00:39:23.293Z,33.40
2023-02-22T00:42:13.086Z,43.92
2023-02-22T00:45:01.544Z,37.72
2023-02-22T00:47:50.694Z,38.20
2023-02-22T00:50:39.350Z,34.15
2023-02-22T00:53:28.191Z,33.22
2023-02-22T00:56:16.668Z,32.85
2023-02-22T00:59:06.504Z,35.05
2023-02-22T01:01:55.103Z,32.35
2023-02-22T01:04:43.642Z,33.10
2023-02-22T01:07:32.309Z,32.75
2023-02-22T01:10:23.220Z,33.87
2023-02-22T01:13:13.333Z,34.72
2023-02-22T01:16:03.260Z,32.97
2023-02-22T01:18:51.676Z,33.60
2023-02-22T01:21:41.465Z,33.10
2023-02-22T01:24:29.899Z,40.35
2023-02-22T01:27:18.918Z,41.72
2023-02-22T01:30:09.530Z,41.03
2023-02-22T01:32:59.487Z,41.30
2023-02-22T01:35:48.434Z,39.13
2023-02-22T01:38:36.902Z,38.70
2023-02-22T01:41:25.650Z,38.75
2023-02-22T01:44:23.038Z,40.22
2023-02-22T01:47:11.514Z,39.97
2023-02-22T01:50:01.389Z,37.83
2023-02-22T01:52:50.442Z,40.85
2023-02-22T01:55:40.497Z,40.30
2023-02-22T01:58:31.550Z,40.42
2023-02-22T02:01:23.079Z,40.55
2023-02-22T02:04:16.561Z,42.58
2023-02-22T02:07:08.933Z,43.40
2023-02-22T02:10:00.101Z,44.15
2023-02-22T02:12:51.168Z,42.97
2023-02-22T02:15:40.319Z,45.33
2023-02-22T02:18:29.801Z,47.80
2023-02-22T02:21:49.924Z,50.03
2023-02-22T02:25:23.528Z,54.75
2023-02-22T02:28:40.689Z,55.20
2023-02-22T02:32:06.369Z,55.25
2023-02-22T02:35:05.262Z,56.20
2023-02-22T02:37:58.817Z,56.30
2023-02-22T02:40:52.486Z,64.03
2023-02-22T02:43:47.203Z,64.88
2023-02-22T02:46:38.404Z,58.53
2023-02-22T02:49:31.919Z,61.03
2023-02-22T02:52:24.416Z,58.28
2023-02-22T02:55:13.481Z,60.17
2023-02-22T02:58:04.685Z,60.42
2023-02-22T03:00:55.570Z,67.93
2023-02-22T03:04:00.677Z,64.18
2023-02-22T03:07:09.473Z,58.88
2023-02-22T03:10:32.178Z,63.75
2023-02-22T03:13:27.323Z,71.25
2023-02-22T03:16:19.263Z,61.45
2023-02-22T03:19:13.120Z,60.33
2023-02-22T03:22:04.467Z,59.97
2023-02-22T03:24:56.514Z,61.55
2023-02-22T03:27:49.270Z,58.13
2023-02-22T03:30:39.710Z,65.28
2023-02-22T03:33:33.955Z,60.38
2023-02-22T03:36:25.017Z,63.25
2023-02-22T03:39:16.952Z,62.50
2023-02-22T03:42:07.570Z,67.78
2023-02-22T03:44:58.931Z,67.82
2023-02-22T03:47:50.477Z,60.03
2023-02-22T03:50:39.906Z,59.88
2023-02-22T03:53:30.562Z,56.93
2023-02-22T03:56:22.459Z,62.30
2023-02-22T03:59:11.841Z,64.22
2023-02-22T04:02:02.116Z,66.03
2023-02-22T04:04:51.386Z,59.97
2023-02-22T04:07:40.114Z,58.10
2023-02-22T04:10:28.847Z,58.70
2023-02-22T04:13:17.612Z,73.07
2023-02-22T04:16:06.475Z,64.55
2023-02-22T04:18:56.585Z,60.35
2023-02-22T04:21:45.334Z,75.45
2023-02-22T04:24:34.056Z,74.90
2023-02-22T04:27:22.761Z,72.90
2023-02-22T04:30:12.395Z,70.32
2023-02-22T04:33:01.309Z,62.50
2023-02-22T04:35:51.642Z,59.90
2023-02-22T04:38:40.398Z,57.75
2023-02-22T04:41:29.160Z,66.97
2023-02-22T04:44:17.847Z,74.07
2023-02-22T04:47:06.621Z,63.10
2023-02-22T04:49:55.927Z,58.00
2023-02-22T04:52:46.024Z,60.47
2023-02-22T04:55:35.201Z,75.45
2023-02-22T04:58:23.957Z,72.93
2023-02-22T05:01:12.776Z,63.63
2023-02-22T05:04:01.552Z,59.00
2023-02-22T05:06:50.266Z,58.55
2023-02-22T05:09:40.394Z,55.40
2023-02-22T05:12:29.141Z,55.22
2023-02-22T05:15:19.363Z,54.60
2023-02-22T05:18:08.066Z,53.25
2023-02-22T05:20:56.678Z,55.33
2023-02-22T05:23:45.195Z,55.03
2023-02-22T05:26:35.295Z,54.63
2023-02-22T05:29:23.843Z,56.72
2023-02-22T05:32:13.329Z,56.75
2023-02-22T05:35:01.787Z,58.97
2023-02-22T05:37:50.796Z,56.47
2023-02-22T05:40:39.247Z,56.00
2023-02-22T05:43:29.050Z,56.38
2023-02-22T05:46:17.490Z,55.20
2023-02-22T05:49:05.966Z,55.83
2023-02-22T05:51:55.862Z,53.35
2023-02-22T05:54:44.432Z,55.17
2023-02-22T05:57:33.056Z,55.80
2023-02-22T06:00:25.432Z,56.03
2023-02-22T06:03:14.132Z,53.97
2023-02-22T06:06:02.516Z,55.47
2023-02-22T06:08:51.155Z,65.13
2023-02-22T06:11:39.667Z,58.60
2023-02-22T06:14:28.201Z,55.40
2023-02-22T06:17:20.353Z,53.97
2023-02-22T06:20:10.588Z,52.23
2023-02-22T06:22:59.673Z,54.65
2023-02-22T06:25:48.168Z,53.95
2023-02-22T06:28:36.774Z,58.80
2023-02-22T06:31:25.201Z,54.65
2023-02-22T06:34:15.072Z,50.35
2023-02-22T06:37:03.480Z,56.17
2023-02-22T06:39:51.975Z,49.88
2023-02-22T06:42:40.991Z,51.67
2023-02-22T06:45:29.674Z,51.17
2023-02-22T06:48:18.456Z,49.93
2023-02-22T06:51:09.944Z,48.97
2023-02-22T06:53:58.480Z,47.73
2023-02-22T06:56:47.131Z,49.22
2023-02-22T06:59:35.543Z,47.80
2023-02-22T07:02:23.979Z,47.88
2023-02-22T07:05:13.492Z,48.95
2023-02-22T07:08:08.435Z,60.87
2023-02-22T07:10:57.164Z,61.38
2023-02-22T07:13:45.640Z,57.90
2023-02-22T07:16:34.644Z,52.03
2023-02-22T07:19:23.639Z,55.58
2023-02-22T07:22:12.131Z,54.03
2023-02-22T07:25:01.882Z,49.63
2023-02-22T07:27:52.411Z,48.63
2023-02-22T07:30:40.985Z,48.33
2023-02-22T07:33:29.680Z,44.67
2023-02-22T07:36:19.880Z,45.60
2023-02-22T07:39:08.803Z,48.40
2023-02-22T07:41:59.316Z,46.40
2023-02-22T07:44:47.831Z,50.70
2023-02-22T07:47:36.314Z,49.65
2023-02-22T07:50:26.249Z,52.17
2023-02-22T07:53:18.086Z,58.92
2023-02-22T07:56:08.802Z,52.40
2023-02-22T07:58:58.716Z,52.42
2023-02-22T08:01:49.997Z,52.38
2023-02-22T08:04:39.450Z,52.63
2023-02-22T08:07:27.907Z,48.63
2023-02-22T08:10:17.521Z,50.40
2023-02-22T08:13:07.014Z,47.88
2023-02-22T08:15:57.194Z,49.13
2023-02-22T08:18:45.634Z,44.20
2023-02-22T08:21:34.214Z,47.90
2023-02-22T08:24:22.681Z,46.85
2023-02-22T08:27:11.092Z,49.38
2023-02-22T08:29:59.534Z,52.20
2023-02-22T08:32:50.127Z,53.97
2023-02-22T08:35:40.910Z,52.72
2023-02-22T08:38:31.952Z,44.22
2023-02-22T08:41:20.390Z,43.10
2023-02-22T08:44:08.835Z,46.05
2023-02-22T08:46:58.503Z,48.65
2023-02-22T08:49:48.320Z,49.13
2023-02-22T08:52:36.918Z,50.22
2023-02-22T08:55:27.435Z,49.58
2023-02-22T08:58:15.884Z,50.58
2023-02-22T09:01:04.615Z,47.22
2023-02-22T09:03:53.208Z,47.17
2023-02-22T09:06:43.426Z,48.90
2023-02-22T09:09:31.959Z,56.42
2023-02-22T09:12:20.407Z,53.30
2023-02-22T09:15:09.751Z,53.88
2023-02-22T09:17:58.599Z,54.45
2023-02-22T09:20:47.066Z,53.45
2023-02-22T09:23:36.962Z,50.60
2023-02-22T09:26:25.455Z,56.88
2023-02-22T09:29:13.952Z,57.83
2023-02-22T09:32:03.975Z,52.97
2023-02-22T09:34:52.536Z,55.93
2023-02-22T09:37:44.567Z,59.28
2023-02-22T09:40:41.081Z,57.63
2023-02-22T09:43:40.581Z,58.70
2023-02-22T09:46:34.971Z,61.20
2023-02-22T09:49:26.376Z,57.70
2023-02-22T09:52:19.770Z,57.70
2023-02-22T09:55:17.290Z,62.15
2023-02-22T09:58:15.316Z,60.72
2023-02-22T10:01:19.815Z,58.67
2023-02-22T10:04:18.563Z,61.83
2023-02-22T10:07:18.293Z,67.68
2023-02-22T10:10:13.888Z,74.18
2023-02-22T10:13:14.105Z,63.73
2023-02-22T10:16:07.686Z,60.47
2023-02-22T10:19:16.140Z,58.22
2023-02-22T10:22:29.321Z,130.13
2023-02-22T10:25:22.184Z,84.82
2023-02-22T10:28:19.344Z,74.05
2023-02-22T10:31:10.508Z,104.22
2023-02-22T10:34:03.122Z,75.57
2023-02-22T10:36:56.677Z,67.80
2023-02-22T10:39:46.748Z,64.78
2023-02-22T10:42:35.454Z,71.30
2023-02-22T10:45:28.513Z,63.45
2023-02-22T10:48:21.149Z,66.90
2023-02-22T10:51:11.482Z,60.92
2023-02-22T10:54:08.936Z,60.50
2023-02-22T10:56:58.124Z,71.15
2023-02-22T10:59:46.874Z,73.22
2023-02-22T11:02:37.448Z,59.90
2023-02-22T11:05:36.748Z,69.35
2023-02-22T11:08:29.183Z,59.60
2023-02-22T11:11:25.346Z,69.53
2023-02-22T11:14:25.465Z,67.53
2023-02-22T11:17:23.443Z,63.92
2023-02-22T11:20:25.331Z,65.32
2023-02-22T11:23:14.563Z,60.00
2023-02-22T11:26:14.548Z,54.75
2023-02-22T11:29:12.264Z,58.50
2023-02-22T11:32:03.591Z,59.10
2023-02-22T11:35:03.569Z,55.13
2023-02-22T11:38:11.736Z,57.23
2023-02-22T11:41:14.511Z,61.17
2023-02-22T11:44:24.747Z,58.40
2023-02-22T11:47:13.877Z,57.88
2023-02-22T11:50:03.162Z,58.20
2023-02-22T11:53:10.267Z,55.33
2023-02-22T11:56:16.113Z,63.72
2023-02-22T11:59:15.922Z,53.90
2023-02-22T12:02:23.333Z,64.43
2023-02-22T12:05:25.300Z,54.05
2023-02-22T12:08:26.799Z,60.25
2023-02-22T12:11:20.613Z,53.55
2023-02-22T12:14:21.926Z,59.10
2023-02-22T12:17:35.027Z,51.53
2023-02-22T12:20:26.780Z,54.72
2023-02-22T12:23:22.635Z,57.28
2023-02-22T12:26:16.614Z,54.55
2023-02-22T12:29:13.064Z,60.10
2023-02-22T12:32:06.002Z,55.72
2023-02-22T12:34:59.636Z,53.38
2023-02-22T12:38:04.107Z,58.05
2023-02-22T12:41:01.538Z,63.93
2023-02-22T12:43:55.516Z,54.40
2023-02-22T12:46:47.711Z,54.88
2023-02-22T12:49:41.642Z,49.75
2023-02-22T12:52:41.236Z,53.63
2023-02-22T12:55:34.526Z,53.35
2023-02-22T12:58:30.411Z,51.78
2023-02-22T13:01:22.109Z,51.70
2023-02-22T13:04:20.415Z,50.20
2023-02-22T13:07:22.039Z,50.30
2023-02-22T13:10:33.079Z,49.85
2023-02-22T13:13:31.514Z,50.42
2023-02-22T13:16:29.888Z,52.45
2023-02-22T13:19:34.189Z,64.20
2023-02-22T13:22:26.649Z,55.92
2023-02-22T13:25:21.704Z,57.13
2023-02-22T13:28:22.058Z,52.65
2023-02-22T13:31:39.876Z,46.53
2023-02-22T13:34:50.446Z,53.58
2023-02-22T13:38:07.378Z,63.90
2023-02-22T13:41:12.871Z,52.38
2023-02-22T13:44:28.713Z,55.77
2023-02-22T13:47:39.403Z,60.05
2023-02-22T13:51:02.629Z,58.70
2023-02-22T13:53:56.089Z,48.03
2023-02-22T13:56:45.349Z,47.28
2023-02-22T13:59:36.373Z,50.53
2023-02-22T14:03:02.074Z,63.35
2023-02-22T14:05:52.700Z,56.47
2023-02-22T14:08:42.654Z,67.63
2023-02-22T14:11:57.968Z,65.40
2023-02-22T14:15:28.661Z,69.93
2023-02-22T14:18:19.536Z,57.88
2023-02-22T14:21:09.880Z,55.13
2023-02-22T14:24:08.759Z,53.92
2023-02-22T14:27:01.525Z,52.97
2023-02-22T14:29:55.407Z,55.95
2023-02-22T14:32:44.128Z,54.08
2023-02-22T14:35:49.484Z,56.25
2023-02-22T14:38:38.928Z,59.83
2023-02-22T14:41:31.086Z,56.10
2023-02-22T14:44:25.480Z,56.17
2023-02-22T14:47:21.017Z,56.70
2023-02-22T14:50:15.920Z,53.47
2023-02-22T14:53:13.309Z,52.97
2023-02-22T14:56:06.917Z,56.00
2023-02-22T14:59:00.874Z,54.80
2023-02-22T15:02:05.817Z,55.95
2023-02-22T15:04:58.202Z,55.40
2023-02-22T15:07:55.306Z,59.40
2023-02-22T15:10:46.710Z,56.13
2023-02-22T15:13:35.176Z,66.78
2023-02-22T15:16:24.493Z,63.78
2023-02-22T15:19:13.728Z,65.88
2023-02-22T15:22:03.942Z,65.13
2023-02-22T15:24:59.894Z,57.35
2023-02-22T15:27:49.830Z,67.30
2023-02-22T15:30:38.364Z,64.22
2023-02-22T15:33:37.950Z,58.40
2023-02-22T15:36:31.047Z,54.70
2023-02-22T15:39:20.851Z,56.90
2023-02-22T15:42:19.201Z,64.05
2023-02-22T15:45:14.122Z,58.13
2023-02-22T15:48:03.357Z,57.47
2023-02-22T15:51:06.836Z,63.10
2023-02-22T15:53:55.286Z,60.70
2023-02-22T15:56:49.853Z,52.67
2023-02-22T15:59:45.520Z,52.45
2023-02-22T16:02:39.242Z,55.15
2023-02-22T16:05:38.095Z,55.97
2023-02-22T16:08:31.270Z,54.57
2023-02-22T16:11:29.947Z,56.43
2023-02-22T16:14:27.508Z,54.47
2023-02-22T16:17:32.483Z,58.23
2023-02-22T16:20:38.712Z,55.70
2023-02-22T16:23:28.952Z,55.67
2023-02-22T16:26:28.084Z,51.57
2023-02-22T16:29:27.448Z,50.85
2023-02-22T16:32:16.097Z,54.50
2023-02-22T16:35:04.714Z,54.30
2023-02-22T16:37:59.138Z,53.50
2023-02-22T16:40:50.577Z,68.20
2023-02-22T16:43:39.154Z,65.75
2023-02-22T16:46:27.695Z,56.35
2023-02-22T16:49:16.403Z,56.20
2023-02-22T16:52:08.445Z,51.65
2023-02-22T16:54:58.278Z,51.83
2023-02-22T16:57:47.539Z,51.00
2023-02-22T17:00:36.059Z,55.22
2023-02-22T17:03:25.526Z,55.40
2023-02-22T17:06:14.006Z,53.10
2023-02-22T17:09:02.416Z,69.82
2023-02-22T17:11:54.015Z,65.55
2023-02-22T17:14:46.938Z,61.95
2023-02-22T17:17:35.376Z,58.45
2023-02-22T17:20:30.081Z,53.45
2023-02-22T17:23:19.893Z,53.63
2023-02-22T17:26:08.400Z,52.53
2023-02-22T17:28:58.310Z,53.50
2023-02-22T17:31:48.812Z,54.65
2023-02-22T17:34:37.548Z,52.92
2023-02-22T17:37:25.992Z,53.95
2023-02-22T17:40:15.695Z,55.72
2023-02-22T17:43:04.808Z,57.70
2023-02-22T17:45:54.865Z,53.22
2023-02-22T17:48:43.501Z,55.92
2023-02-22T17:51:31.941Z,60.50
2023-02-22T17:54:20.623Z,59.97
2023-02-22T17:57:09.091Z,57.30
2023-02-22T17:59:58.039Z,55.73
2023-02-22T18:02:48.077Z,57.58
2023-02-22T18:05:41.308Z,60.22
2023-02-22T18:08:32.044Z,63.00
2023-02-22T18:11:25.003Z,56.17
2023-02-22T18:14:13.406Z,57.92
2023-02-22T18:17:02.143Z,56.72
2023-02-22T18:19:52.000Z,55.35
2023-02-22T18:22:42.719Z,56.67
2023-02-22T18:25:32.833Z,56.97
2023-02-22T18:28:22.679Z,64.10
2023-02-22T18:31:15.121Z,57.00
2023-02-22T18:34:03.763Z,56.92
2023-02-22T18:36:53.788Z,52.83
2023-02-22T18:39:43.174Z,57.97
2023-02-22T18:42:31.615Z,58.92
2023-02-22T18:45:21.144Z,57.57
2023-02-22T18:48:09.566Z,55.85
2023-02-22T18:51:01.326Z,58.55
2023-02-22T18:53:54.947Z,57.60
2023-02-22T18:56:43.420Z,57.47
2023-02-22T18:59:31.886Z,57.40
2023-02-22T19:02:21.287Z,57.78
2023-02-22T19:05:10.014Z,57.75
2023-02-22T19:07:58.455Z,60.37
2023-02-22T19:10:49.557Z,70.43
2023-02-22T19:13:38.898Z,62.65
2023-02-22T19:16:28.868Z,66.57
2023-02-22T19:19:20.803Z,67.80
2023-02-22T19:22:09.281Z,69.30
2023-02-22T19:24:57.971Z,63.63
2023-02-22T19:27:47.737Z,64.22
2023-02-22T19:30:36.155Z,67.53
2023-02-22T19:33:26.101Z,60.17
2023-02-22T19:36:16.679Z,57.03
2023-02-22T19:39:05.582Z,63.70
2023-02-22T19:41:53.990Z,63.47
2023-02-22T19:44:43.896Z,65.13
2023-02-22T19:47:33.085Z,68.20
2023-02-22T19:50:22.447Z,64.03
2023-02-22T19:53:14.019Z,70.50
2023-02-22T19:56:06.730Z,68.50
2023-02-22T19:58:57.213Z,68.57
2023-02-22T20:01:47.063Z,63.38
2023-02-22T20:04:37.404Z,61.83
2023-02-22T20:07:25.931Z,70.75
2023-02-22T20:10:15.175Z,66.85
2023-02-22T20:13:03.868Z,61.25
2023-02-22T20:15:53.452Z,72.53
2023-02-22T20:18:43.835Z,67.47
2023-02-22T20:21:33.216Z,71.53
2023-02-22T20:24:21.944Z,72.20
2023-02-22T20:27:10.708Z,60.35
2023-02-22T20:29:59.494Z,56.78
2023-02-22T20:32:48.376Z,58.95
2023-02-22T20:35:38.611Z,56.37
2023-02-22T20:38:27.340Z,57.67
2023-02-22T20:41:17.165Z,72.70
2023-02-22T20:44:06.987Z,60.90
2023-02-22T20:46:55.827Z,58.45
2023-02-22T20:49:44.640Z,67.55
2023-02-22T20:52:34.756Z,58.85
2023-02-22T20:55:23.388Z,56.65
2023-02-22T20:58:12.150Z,59.65
2023-02-22T21:01:04.991Z,57.72
2023-02-22T21:03:53.824Z,58.43
2023-02-22T21:06:43.036Z,56.97
2023-02-22T21:09:33.911Z,57.92
2023-02-22T21:12:22.589Z,61.25
2023-02-22T21:15:11.999Z,63.35
2023-02-22T21:18:00.751Z,72.68
2023-02-22T21:20:49.863Z,67.47
2023-02-22T21:23:38.868Z,65.57
2023-02-22T21:26:29.804Z,57.97
2023-02-22T21:29:18.528Z,57.25
2023-02-22T21:32:08.667Z,56.73
2023-02-22T21:34:57.577Z,66.10
2023-02-22T21:37:46.295Z,64.38
2023-02-22T21:40:35.882Z,65.72
2023-02-22T21:43:27.375Z,64.80
2023-02-22T21:46:16.148Z,59.70
2023-02-22T21:49:05.811Z,72.80
2023-02-22T21:51:54.520Z,71.75
2023-02-22T21:54:43.419Z,60.83
2023-02-22T21:57:32.162Z,60.78
2023-02-22T22:00:29.194Z,58.83
2023-02-22T22:03:21.458Z,59.93
2023-02-22T22:06:13.847Z,57.83
2023-02-22T22:09:04.776Z,58.80
2023-02-22T22:11:54.454Z,57.87
2023-02-22T22:14:43.247Z,73.35
2023-02-22T22:17:33.936Z,68.65
2023-02-22T22:20:23.721Z,69.38
2023-02-22T22:23:12.602Z,62.97
2023-02-22T22:26:03.181Z,56.40
2023-02-22T22:28:52.898Z,57.53
2023-02-22T22:31:41.720Z,59.07
2023-02-22T22:34:34.345Z,59.88
2023-02-22T22:37:23.118Z,59.60
2023-02-22T22:40:15.560Z,58.72
2023-02-22T22:43:06.110Z,57.83
2023-02-22T22:45:54.900Z,60.60
2023-02-22T22:48:44.620Z,59.77
2023-02-22T22:51:34.747Z,60.20
2023-02-22T22:54:23.926Z,59.20
2023-02-22T22:57:12.880Z,58.03
2023-02-22T23:00:21.689Z,60.72
2023-02-22T23:03:11.915Z,58.97
2023-02-22T23:06:03.775Z,57.33
2023-02-22T23:08:59.979Z,69.00
2023-02-22T23:11:50.890Z,62.42
2023-02-22T23:14:44.077Z,57.13
2023-02-22T23:17:41.221Z,59.50
2023-02-22T23:20:29.992Z,58.08
2023-02-22T23:23:18.706Z,58.03
2023-02-22T23:26:17.935Z,60.22
2023-02-22T23:29:08.742Z,57.58
2023-02-22T23:31:58.753Z,59.45
2023-02-22T23:34:49.618Z,61.67
2023-02-22T23:37:39.878Z,57.90
2023-02-22T23:40:29.174Z,57.53
2023-02-22T23:43:21.868Z,58.30
2023-02-22T23:46:11.771Z,58.25
2023-02-22T23:49:02.699Z,59.70
2023-02-22T23:51:52.587Z,61.03
2023-02-22T23:54:44.117Z,59.08
2023-02-22T23:57:32.986Z,62.53
